Time,TemperatureF,DewpointF,PressureIn,WindDirection,WindDirectionDegrees,WindSpeedMPH,WindSpeedGustMPH,Humidity,HourlyPrecipIn,Conditions,Clouds,dailyrainin,SoftwareType,DateUTC
2013-10-08 00:00:00,53.6,52.8,29.98,NW,325,0.0,0.0,97,0.00,,,0.18,Wunderground v.1.15,2013-10-08 04:00:00,
2013-10-08 00:05:00,53.6,52.8,29.98,NW,325,0.0,0.0,97,0.00,,,0.00,Wunderground v.1.15,2013-10-08 04:05:00,
2013-10-08 00:10:00,53.5,52.7,29.98,NW,325,0.0,0.0,97,0.00,,,0.00,Wunderground v.1.15,2013-10-08 04:10:00,
2013-10-08 00:19:00,53.4,52.6,29.98,NW,325,0.0,0.0,97,0.00,,,0.00,Wunderground v.1.15,2013-10-08 04:19:00,
2013-10-08 00:25:00,53.4,52.6,29.98,NW,325,0.0,0.0,97,0.00,,,0.00,Wunderground v.1.15,2013-10-08 04:25:00,
2013-10-08 00:30:00,53.4,52.6,29.98,NW,325,0.0,0.0,97,0.00,,,0.00,Wunderground v.1.15,2013-10-08 04:30:00,
2013-10-08 00:40:00,53.3,52.5,29.98,NW,325,0.0,0.0,97,0.00,,,0.00,Wunderground v.1.15,2013-10-08 04:40:00,
2013-10-08 00:49:00,53.2,52.4,29.97,NW,325,0.0,0.0,97,0.00,,,0.00,Wunderground v.1.15,2013-10-08 04:49:00,
2013-10-08 00:55:00,53.2,52.4,29.97,NW,325,0.0,0.0,97,0.00,,,0.00,Wunderground v.1.15,2013-10-08 04:55:00,
2013-10-08 01:00:00,53.2,52.4,29.97,NW,325,0.0,0.0,97,0.00,,,0.00,Wunderground v.1.15,2013-10-08 05:00:00,
2013-10-08 01:10:00,53.0,52.2,29.97,NW,325,0.0,0.0,97,0.00,,,0.00,Wunderground v.1.15,2013-10-08 05:10:00,
2013-10-08 01:20:00,52.8,52.0,29.98,NW,325,0.0,0.0,97,0.00,,,0.00,Wunderground v.1.15,2013-10-08 05:20:00,
2013-10-08 01:25:00,52.8,52.0,29.98,NW,325,0.0,0.0,97,0.00,,,0.00,Wunderground v.1.15,2013-10-08 05:25:00,
2013-10-08 01:30:00,52.8,52.0,29.98,NW,325,0.0,0.0,97,0.00,,,0.00,Wunderground v.1.15,2013-10-08 05:30:00,
2013-10-08 01:40:00,52.8,52.0,29.98,NW,325,0.0,0.0,97,0.00,,,0.00,Wunderground v.1.15,2013-10-08 05:40:00,
2013-10-08 01:49:00,52.8,52.0,29.98,NW,325,0.0,0.0,97,0.00,,,0.00,Wunderground v.1.15,2013-10-08 05:49:00,
2013-10-08 01:55:00,52.8,52.0,29.98,NW,325,0.0,0.0,97,0.00,,,0.00,Wunderground v.1.15,2013-10-08 05:55:00,
2013-10-08 02:05:00,52.7,51.9,29.98,NW,325,0.0,0.0,97,0.00,,,0.00,Wunderground v.1.15,2013-10-08 06:05:00,
2013-10-08 02:10:00,52.6,51.8,29.98,NW,325,0.0,0.0,97,0.00,,,0.00,Wunderground v.1.15,2013-10-08 06:10:00,
2013-10-08 02:19:00,52.5,51.7,29.98,NW,325,0.0,0.0,97,0.00,,,0.00,Wunderground v.1.15,2013-10-08 06:19:00,
2013-10-08 02:25:00,52.5,51.7,29.98,NW,325,0.0,0.0,97,0.00,,,0.00,Wunderground v.1.15,2013-10-08 06:25:00,
2013-10-08 02:30:00,52.5,51.7,29.98,NW,325,0.0,0.0,97,0.00,,,0.00,Wunderground v.1.15,2013-10-08 06:30:00,
2013-10-08 02:40:00,52.4,51.6,29.98,NW,325,0.0,0.0,97,0.00,,,0.00,Wunderground v.1.15,2013-10-08 06:40:00,
2013-10-08 02:49:00,52.5,52.0,29.98,NW,325,0.0,0.0,98,0.00,,,0.00,Wunderground v.1.15,2013-10-08 06:49:00,
2013-10-08 02:55:00,52.5,51.7,29.98,NW,325,0.0,0.0,97,0.00,,,0.00,Wunderground v.1.15,2013-10-08 06:55:00,
2013-10-08 03:00:00,52.5,52.0,29.98,NW,325,0.0,0.0,98,0.00,,,0.00,Wunderground v.1.15,2013-10-08 07:00:00,
2013-10-08 03:10:00,52.4,51.9,29.98,NW,325,0.0,0.0,98,0.00,,,0.00,Wunderground v.1.15,2013-10-08 07:10:00,
2013-10-08 03:19:00,52.4,51.9,29.98,NW,325,0.0,0.0,98,0.00,,,0.00,Wunderground v.1.15,2013-10-08 07:19:00,
2013-10-08 03:25:00,52.4,51.6,29.98,NW,325,0.0,0.0,97,0.00,,,0.00,Wunderground v.1.15,2013-10-08 07:25:00,
2013-10-08 03:30:00,52.3,51.8,29.97,NW,325,0.0,0.0,98,0.00,,,0.00,Wunderground v.1.15,2013-10-08 07:30:00,
2013-10-08 03:40:00,52.3,51.8,29.97,NW,325,0.0,0.0,98,0.00,,,0.00,Wunderground v.1.15,2013-10-08 07:40:00,
2013-10-08 03:49:00,52.4,51.9,29.97,NW,325,0.0,0.0,98,0.00,,,0.00,Wunderground v.1.15,2013-10-08 07:49:00,
2013-10-08 03:55:00,52.5,52.0,29.97,NW,325,0.0,0.0,98,0.00,,,0.00,Wunderground v.1.15,2013-10-08 07:55:00,
2013-10-08 04:05:00,52.5,52.0,29.97,NW,325,0.0,0.0,98,0.00,,,0.00,Wunderground v.1.15,2013-10-08 08:05:00,
2013-10-08 04:10:00,52.6,52.1,29.97,NW,325,0.0,0.0,98,0.00,,,0.00,Wunderground v.1.15,2013-10-08 08:10:00,
2013-10-08 04:19:00,52.8,52.3,29.97,NW,325,0.0,0.0,98,0.00,,,0.00,Wunderground v.1.15,2013-10-08 08:19:00,
2013-10-08 04:25:00,53.0,52.5,29.97,NW,325,0.0,0.0,98,0.00,,,0.00,Wunderground v.1.15,2013-10-08 08:25:00,
2013-10-08 04:30:00,53.1,52.6,29.97,NW,325,0.0,0.0,98,0.00,,,0.00,Wunderground v.1.15,2013-10-08 08:30:00,
2013-10-08 04:40:00,53.4,52.8,29.97,NW,325,0.0,0.0,98,0.00,,,0.00,Wunderground v.1.15,2013-10-08 08:40:00,
2013-10-08 04:45:00,53.5,52.9,29.98,NW,325,0.0,0.0,98,0.00,,,0.00,Wunderground v.1.15,2013-10-08 08:45:00,
2013-10-08 04:50:00,53.6,53.0,29.98,NW,325,0.0,0.0,98,0.00,,,0.00,Wunderground v.1.15,2013-10-08 08:50:00,
2013-10-08 05:00:00,54.0,53.4,29.97,NW,325,0.0,0.0,98,0.00,,,0.00,Wunderground v.1.15,2013-10-08 09:00:00,
2013-10-08 05:10:00,54.2,53.6,29.97,NW,325,0.0,0.0,98,0.00,,,0.00,Wunderground v.1.15,2013-10-08 09:10:00,
2013-10-08 05:19:00,54.2,53.6,29.98,NW,325,0.0,0.0,98,0.00,,,0.00,Wunderground v.1.15,2013-10-08 09:19:00,
2013-10-08 05:25:00,54.3,53.7,29.98,NW,325,0.0,0.0,98,0.00,,,0.00,Wunderground v.1.15,2013-10-08 09:25:00,
2013-10-08 05:30:00,54.4,53.8,29.99,NW,325,0.0,0.0,98,0.00,,,0.00,Wunderground v.1.15,2013-10-08 09:30:00,
2013-10-08 05:40:00,54.3,53.7,29.99,NW,325,0.0,0.0,98,0.00,,,0.00,Wunderground v.1.15,2013-10-08 09:40:00,
2013-10-08 05:49:00,54.3,53.7,29.99,NW,325,0.0,0.0,98,0.00,,,0.00,Wunderground v.1.15,2013-10-08 09:49:00,
2013-10-08 05:55:00,54.2,53.6,29.99,NW,325,0.0,0.0,98,0.00,,,0.00,Wunderground v.1.15,2013-10-08 09:55:00,
2013-10-08 06:00:00,54.2,53.4,29.99,NW,325,0.0,0.0,97,0.00,,,0.00,Wunderground v.1.15,2013-10-08 10:00:00,
2013-10-08 06:10:00,54.1,53.5,29.99,NW,325,0.0,0.0,98,0.00,,,0.00,Wunderground v.1.15,2013-10-08 10:10:00,
2013-10-08 06:19:00,54.2,53.6,30.00,NW,325,0.0,0.0,98,0.00,,,0.00,Wunderground v.1.15,2013-10-08 10:19:00,
2013-10-08 06:25:00,54.3,53.7,30.00,NW,325,0.0,0.0,98,0.00,,,0.00,Wunderground v.1.15,2013-10-08 10:25:00,
2013-10-08 06:30:00,54.4,53.8,30.01,NW,325,0.0,0.0,98,0.00,,,0.00,Wunderground v.1.15,2013-10-08 10:30:00,
2013-10-08 06:39:00,54.5,53.9,30.01,NW,325,0.0,0.0,98,0.00,,,0.00,Wunderground v.1.15,2013-10-08 10:39:00,
2013-10-08 06:45:00,54.7,54.1,30.01,NW,325,0.0,0.0,98,0.00,,,0.00,Wunderground v.1.15,2013-10-08 10:45:00,
2013-10-08 06:50:00,54.7,54.1,30.01,NW,325,0.0,0.0,98,0.00,,,0.00,Wunderground v.1.15,2013-10-08 10:50:00,
2013-10-08 07:00:00,54.8,54.2,30.03,NW,325,0.0,0.0,98,0.00,,,0.00,Wunderground v.1.15,2013-10-08 11:00:00,
2013-10-08 07:10:00,55.0,54.4,30.03,NW,325,0.0,0.0,98,0.00,,,0.00,Wunderground v.1.15,2013-10-08 11:10:00,
2013-10-08 07:15:00,55.0,54.4,30.04,NW,325,0.0,0.0,98,0.00,,,0.00,Wunderground v.1.15,2013-10-08 11:15:00,
2013-10-08 07:20:00,55.1,54.5,30.04,NW,325,0.0,0.0,98,0.00,,,0.00,Wunderground v.1.15,2013-10-08 11:20:00,
2013-10-08 07:30:00,55.3,54.7,30.05,NE,53,0.0,0.0,98,0.00,,,0.00,Wunderground v.1.15,2013-10-08 11:30:00,
2013-10-08 07:40:00,55.4,54.8,30.05,NE,53,0.0,0.0,98,0.00,,,0.00,Wunderground v.1.15,2013-10-08 11:40:00,
2013-10-08 07:49:00,55.5,54.9,30.05,NE,53,0.0,0.0,98,0.00,,,0.00,Wunderground v.1.15,2013-10-08 11:49:00,
2013-10-08 07:55:00,55.6,55.0,30.05,NE,53,0.0,0.0,98,0.00,,,0.00,Wunderground v.1.15,2013-10-08 11:55:00,
2013-10-08 08:00:00,55.6,55.0,30.06,NE,53,0.0,0.0,98,0.00,,,0.00,Wunderground v.1.15,2013-10-08 12:00:00,
2013-10-08 08:10:00,55.8,55.2,30.06,NE,53,0.0,0.0,98,0.00,,,0.00,Wunderground v.1.15,2013-10-08 12:10:00,
2013-10-08 08:19:00,56.2,55.6,30.07,NE,53,0.0,0.0,98,0.00,,,0.00,Wunderground v.1.15,2013-10-08 12:19:00,
2013-10-08 08:25:00,56.5,55.9,30.07,NE,53,0.0,0.0,98,0.00,,,0.00,Wunderground v.1.15,2013-10-08 12:25:00,
2013-10-08 08:34:00,56.9,56.3,30.07,NE,53,0.0,0.0,98,0.00,,,0.00,Wunderground v.1.15,2013-10-08 12:34:00,
2013-10-08 08:39:00,57.1,56.5,30.07,NE,53,0.0,0.0,98,0.00,,,0.00,Wunderground v.1.15,2013-10-08 12:39:00,
2013-10-08 08:49:00,57.5,56.9,30.08,NE,53,0.0,0.0,98,0.00,,,0.00,Wunderground v.1.15,2013-10-08 12:49:00,
2013-10-08 08:55:00,57.7,56.9,30.08,NE,53,0.0,0.0,97,0.00,,,0.00,Wunderground v.1.15,2013-10-08 12:55:00,
2013-10-08 09:00:00,58.0,56.9,30.08,East,84,0.0,0.0,96,0.00,,,0.00,Wunderground v.1.15,2013-10-08 13:00:00,
2013-10-08 09:10:00,58.4,56.7,30.08,East,84,0.0,0.0,94,0.00,,,0.00,Wunderground v.1.15,2013-10-08 13:10:00,
2013-10-08 09:19:00,58.5,55.6,30.08,NNW,329,0.0,0.0,90,0.00,,,0.00,Wunderground v.1.15,2013-10-08 13:19:00,
2013-10-08 09:25:00,58.7,56.1,30.08,NNW,329,0.0,0.0,91,0.00,,,0.00,Wunderground v.1.15,2013-10-08 13:25:00,
2013-10-08 09:30:00,58.7,56.1,30.08,NNW,329,0.0,0.0,91,0.00,,,0.00,Wunderground v.1.15,2013-10-08 13:30:00,
2013-10-08 09:40:00,59.2,56.3,30.08,NNW,348,0.0,0.0,90,0.00,,,0.00,Wunderground v.1.15,2013-10-08 13:40:00,
2013-10-08 09:49:00,60.0,55.8,30.09,North,351,0.0,0.0,86,0.00,,,0.00,Wunderground v.1.15,2013-10-08 13:49:00,
2013-10-08 09:55:00,60.4,55.2,30.09,NNW,329,0.0,0.0,83,0.00,,,0.00,Wunderground v.1.15,2013-10-08 13:55:00,
2013-10-08 10:00:00,60.7,56.5,30.09,NNW,329,0.0,0.0,86,0.00,,,0.00,Wunderground v.1.15,2013-10-08 14:00:00,
2013-10-08 10:10:00,61.2,55.7,30.09,NNW,342,0.0,0.0,82,0.00,,,0.00,Wunderground v.1.15,2013-10-08 14:10:00,
2013-10-08 10:19:00,61.5,55.3,30.10,NNW,340,0.0,0.0,80,0.00,,,0.00,Wunderground v.1.15,2013-10-08 14:19:00,
2013-10-08 10:25:00,61.7,55.5,30.10,North,360,0.0,0.0,80,0.00,,,0.00,Wunderground v.1.15,2013-10-08 14:25:00,
2013-10-08 10:35:00,62.2,56.3,30.10,North,360,0.0,0.0,81,0.00,,,0.00,Wunderground v.1.15,2013-10-08 14:35:00,
2013-10-08 10:40:00,62.4,55.8,30.10,North,360,0.0,0.0,79,0.00,,,0.00,Wunderground v.1.15,2013-10-08 14:40:00,
2013-10-08 10:50:00,63.0,55.7,30.10,North,360,0.0,0.0,77,0.00,,,0.00,Wunderground v.1.15,2013-10-08 14:50:00,
2013-10-08 10:59:00,63.5,55.4,30.09,North,355,0.0,0.0,75,0.00,,,0.00,Wunderground v.1.15,2013-10-08 14:59:00,
2013-10-08 11:05:00,63.9,55.8,30.09,North,355,0.0,0.0,75,0.00,,,0.00,Wunderground v.1.15,2013-10-08 15:05:00,
2013-10-08 11:14:00,64.3,56.6,30.09,North,360,0.0,0.0,76,0.00,,,0.00,Wunderground v.1.15,2013-10-08 15:14:00,
2013-10-08 11:19:00,64.6,56.1,30.09,North,360,0.0,0.0,74,0.00,,,0.00,Wunderground v.1.15,2013-10-08 15:19:00,
2013-10-08 11:25:00,64.8,56.3,30.09,North,360,0.0,0.0,74,0.00,,,0.00,Wunderground v.1.15,2013-10-08 15:25:00,
2013-10-08 11:35:00,65.1,57.3,30.10,NNW,347,0.0,0.0,76,0.00,,,0.00,Wunderground v.1.15,2013-10-08 15:35:00,
2013-10-08 11:40:00,65.4,57.6,30.10,NNW,347,0.0,0.0,76,0.00,,,0.00,Wunderground v.1.15,2013-10-08 15:40:00,
2013-10-08 11:49:00,65.7,56.8,30.10,NNW,342,0.0,0.0,73,0.00,,,0.00,Wunderground v.1.15,2013-10-08 15:49:00,
2013-10-08 11:55:00,66.0,56.7,30.10,NNW,342,0.0,0.0,72,0.00,,,0.00,Wunderground v.1.15,2013-10-08 15:55:00,
2013-10-08 12:00:00,66.1,57.2,30.10,NNW,340,0.0,0.0,73,0.00,,,0.00,Wunderground v.1.15,2013-10-08 16:00:00,
2013-10-08 12:10:00,66.6,58.1,30.10,NNW,340,0.0,0.0,74,0.00,,,0.00,Wunderground v.1.15,2013-10-08 16:10:00,
2013-10-08 12:20:00,67.0,56.5,30.11,North,351,0.0,0.0,69,0.00,,,0.00,Wunderground v.1.15,2013-10-08 16:20:00,
2013-10-08 12:30:00,67.2,56.7,30.10,North,5,0.0,0.0,69,0.00,,,0.00,Wunderground v.1.15,2013-10-08 16:30:00,
2013-10-08 12:40:00,67.7,57.6,30.10,NNW,342,0.0,0.0,70,0.00,,,0.00,Wunderground v.1.15,2013-10-08 16:40:00,
2013-10-08 12:50:00,68.0,57.4,30.10,SW,219,0.0,0.0,69,0.00,,,0.00,Wunderground v.1.15,2013-10-08 16:50:00,
2013-10-08 12:59:00,68.4,58.2,30.09,SW,225,0.0,0.0,70,0.00,,,0.00,Wunderground v.1.15,2013-10-08 16:59:00,
2013-10-08 13:05:00,68.2,57.2,30.09,NNW,332,0.0,0.0,68,0.00,,,0.00,Wunderground v.1.15,2013-10-08 17:05:00,
2013-10-08 13:10:00,68.0,57.0,30.09,North,355,0.0,0.0,68,0.00,,,0.00,Wunderground v.1.15,2013-10-08 17:10:00,
2013-10-08 13:20:00,68.0,57.0,30.09,NE,41,0.0,1.0,68,0.00,,,0.00,Wunderground v.1.15,2013-10-08 17:20:00,
2013-10-08 13:29:00,68.3,56.9,30.09,North,5,0.0,0.0,67,0.00,,,0.00,Wunderground v.1.15,2013-10-08 17:29:00,
2013-10-08 13:35:00,68.3,57.3,30.09,NNE,13,0.0,0.0,68,0.00,,,0.00,Wunderground v.1.15,2013-10-08 17:35:00,
2013-10-08 13:40:00,68.4,57.0,30.09,North,355,0.0,0.0,67,0.00,,,0.00,Wunderground v.1.15,2013-10-08 17:40:00,
2013-10-08 13:50:00,68.7,56.9,30.08,NNW,348,0.0,0.0,66,0.00,,,0.00,Wunderground v.1.15,2013-10-08 17:50:00,
2013-10-08 13:59:00,68.6,57.2,30.08,North,9,0.0,0.0,67,0.00,,,0.00,Wunderground v.1.15,2013-10-08 17:59:00,
2013-10-08 14:05:00,68.8,57.4,30.08,NNE,14,0.0,0.0,67,0.00,,,0.00,Wunderground v.1.15,2013-10-08 18:05:00,
2013-10-08 14:10:00,68.8,56.6,30.08,NNE,14,0.0,0.0,65,0.00,,,0.00,Wunderground v.1.15,2013-10-08 18:10:00,
2013-10-08 14:20:00,68.8,56.1,30.07,NNE,30,0.0,2.0,64,0.00,,,0.00,Wunderground v.1.15,2013-10-08 18:20:00,
2013-10-08 14:29:00,69.1,57.3,30.07,North,349,0.0,0.0,66,0.00,,,0.00,Wunderground v.1.15,2013-10-08 18:29:00,
2013-10-08 14:35:00,69.5,58.1,30.07,North,349,0.0,0.0,67,0.00,,,0.00,Wunderground v.1.15,2013-10-08 18:35:00,
2013-10-08 14:40:00,69.8,57.5,30.07,North,349,0.0,0.0,65,0.00,,,0.00,Wunderground v.1.15,2013-10-08 18:40:00,
2013-10-08 14:50:00,70.0,57.3,30.07,North,351,0.0,0.0,64,0.00,,,0.00,Wunderground v.1.15,2013-10-08 18:50:00,
2013-10-08 15:00:00,71.2,58.0,30.06,North,351,0.0,0.0,63,0.00,,,0.00,Wunderground v.1.15,2013-10-08 19:00:00,
2013-10-08 15:05:00,71.2,58.0,30.06,North,351,0.0,0.0,63,0.00,,,0.00,Wunderground v.1.15,2013-10-08 19:05:00,
2013-10-08 15:10:00,71.3,59.4,30.06,North,351,0.0,0.0,66,0.00,,,0.00,Wunderground v.1.15,2013-10-08 19:10:00,
2013-10-08 15:20:00,71.5,56.9,30.06,North,5,0.0,0.0,60,0.00,,,0.00,Wunderground v.1.15,2013-10-08 19:20:00,
2013-10-08 15:30:00,71.5,57.8,30.06,NNE,12,0.0,0.0,62,0.00,,,0.00,Wunderground v.1.15,2013-10-08 19:30:00,
2013-10-08 15:39:00,71.2,58.0,30.06,North,355,0.0,0.0,63,0.00,,,0.00,Wunderground v.1.15,2013-10-08 19:39:00,
2013-10-08 15:45:00,71.0,57.3,30.06,North,355,0.0,0.0,62,0.00,,,0.00,Wunderground v.1.15,2013-10-08 19:45:00,
2013-10-08 15:50:00,70.9,56.8,30.06,North,355,0.0,0.0,61,0.00,,,0.00,Wunderground v.1.15,2013-10-08 19:50:00,
2013-10-08 16:00:00,70.8,58.0,30.07,NNW,345,0.0,0.0,64,0.00,,,0.00,Wunderground v.1.15,2013-10-08 20:00:00,
2013-10-08 16:10:00,71.2,57.5,30.07,NNW,346,0.0,0.0,62,0.00,,,0.00,Wunderground v.1.15,2013-10-08 20:10:00,
2013-10-08 16:19:00,71.3,57.2,30.07,NNW,346,0.0,0.0,61,0.00,,,0.00,Wunderground v.1.15,2013-10-08 20:19:00,
2013-10-08 16:25:00,71.2,58.4,30.07,North,355,0.0,0.0,64,0.00,,,0.00,Wunderground v.1.15,2013-10-08 20:25:00,
2013-10-08 16:35:00,70.6,58.3,30.07,North,355,0.0,0.0,65,0.00,,,0.00,Wunderground v.1.15,2013-10-08 20:35:00,
2013-10-08 16:40:00,70.5,58.2,30.07,North,355,0.0,0.0,65,0.00,,,0.00,Wunderground v.1.15,2013-10-08 20:40:00,
2013-10-08 16:49:00,70.1,58.6,30.07,North,355,0.0,0.0,67,0.00,,,0.00,Wunderground v.1.15,2013-10-08 20:49:00,
2013-10-08 16:55:00,69.8,57.9,30.07,North,355,0.0,0.0,66,0.00,,,0.00,Wunderground v.1.15,2013-10-08 20:55:00,
2013-10-08 17:00:00,69.5,58.1,30.08,North,355,0.0,0.0,67,0.00,,,0.00,Wunderground v.1.15,2013-10-08 21:00:00,
2013-10-08 17:10:00,69.1,58.5,30.08,North,355,0.0,0.0,69,0.00,,,0.00,Wunderground v.1.15,2013-10-08 21:10:00,
2013-10-08 17:19:00,68.8,58.2,30.08,North,355,0.0,0.0,69,0.00,,,0.00,Wunderground v.1.15,2013-10-08 21:19:00,
2013-10-08 17:25:00,68.6,58.0,30.08,North,355,0.0,0.0,69,0.00,,,0.00,Wunderground v.1.15,2013-10-08 21:25:00,
2013-10-08 17:30:00,68.5,59.1,30.08,North,355,0.0,0.0,72,0.00,,,0.00,Wunderground v.1.15,2013-10-08 21:30:00,
2013-10-08 17:40:00,68.4,58.2,30.08,North,355,0.0,0.0,70,0.00,,,0.00,Wunderground v.1.15,2013-10-08 21:40:00,
2013-10-08 17:49:00,68.3,59.3,30.09,North,355,0.0,0.0,73,0.00,,,0.00,Wunderground v.1.15,2013-10-08 21:49:00,
2013-10-08 17:55:00,68.1,59.1,30.09,North,355,0.0,0.0,73,0.00,,,0.00,Wunderground v.1.15,2013-10-08 21:55:00,
2013-10-08 18:00:00,67.9,59.3,30.09,North,355,0.0,0.0,74,0.00,,,0.00,Wunderground v.1.15,2013-10-08 22:00:00,
2013-10-08 18:10:00,67.6,59.0,30.09,North,355,0.0,0.0,74,0.00,,,0.00,Wunderground v.1.15,2013-10-08 22:10:00,
2013-10-08 18:20:00,67.3,59.1,30.10,ENE,75,0.0,0.0,75,0.00,,,0.00,Wunderground v.1.15,2013-10-08 22:20:00,
2013-10-08 18:29:00,67.0,59.2,30.10,ENE,75,0.0,0.0,76,0.00,,,0.00,Wunderground v.1.15,2013-10-08 22:29:00,
2013-10-08 18:35:00,66.8,59.0,30.10,East,80,0.0,0.0,76,0.00,,,0.00,Wunderground v.1.15,2013-10-08 22:35:00,
2013-10-08 18:40:00,66.6,58.8,30.10,East,80,0.0,0.0,76,0.00,,,0.00,Wunderground v.1.15,2013-10-08 22:40:00,
2013-10-08 18:50:00,66.2,59.1,30.11,East,80,0.0,0.0,78,0.00,,,0.00,Wunderground v.1.15,2013-10-08 22:50:00,
2013-10-08 18:59:00,65.8,58.7,30.11,East,80,0.0,0.0,78,0.00,,,0.00,Wunderground v.1.15,2013-10-08 22:59:00,
2013-10-08 19:05:00,65.6,58.6,30.11,East,80,0.0,0.0,78,0.00,,,0.00,Wunderground v.1.15,2013-10-08 23:05:00,
2013-10-08 19:10:00,65.4,58.4,30.11,East,80,0.0,0.0,78,0.00,,,0.00,Wunderground v.1.15,2013-10-08 23:10:00,
2013-10-08 19:20:00,64.8,58.8,30.12,East,80,0.0,0.0,81,0.00,,,0.00,Wunderground v.1.15,2013-10-08 23:20:00,
2013-10-08 19:29:00,64.3,59.0,30.12,East,80,0.0,0.0,83,0.00,,,0.00,Wunderground v.1.15,2013-10-08 23:29:00,
2013-10-08 20:00:00,64.1,58.1,30.13,East,80,0.0,0.0,81,0.00,,,0.00,Wunderground v.1.15,2013-10-09 00:00:00,
2013-10-08 20:10:00,64.1,58.1,30.13,East,80,0.0,0.0,81,0.00,,,0.00,Wunderground v.1.15,2013-10-09 00:10:00,
2013-10-08 20:20:00,64.2,58.6,30.13,East,80,0.0,0.0,82,0.00,,,0.00,Wunderground v.1.15,2013-10-09 00:20:00,
2013-10-08 20:30:00,64.1,58.5,30.13,East,80,0.0,0.0,82,0.00,,,0.00,Wunderground v.1.15,2013-10-09 00:30:00,
2013-10-08 20:40:00,63.9,58.3,30.13,East,80,0.0,0.0,82,0.00,,,0.00,Wunderground v.1.15,2013-10-09 00:40:00,
2013-10-08 20:45:00,63.7,58.1,30.14,East,80,0.0,0.0,82,0.00,,,0.00,Wunderground v.1.15,2013-10-09 00:45:00,
2013-10-08 20:50:00,63.6,58.0,30.14,East,80,0.0,0.0,82,0.00,,,0.00,Wunderground v.1.15,2013-10-09 00:50:00,
2013-10-08 21:00:00,63.2,57.3,30.14,East,80,0.0,0.0,81,0.00,,,0.00,Wunderground v.1.15,2013-10-09 01:00:00,
2013-10-08 21:09:00,62.9,57.0,30.14,East,80,0.0,0.0,81,0.00,,,0.00,Wunderground v.1.15,2013-10-09 01:09:00,
2013-10-08 21:15:00,62.8,57.6,30.14,East,80,0.0,0.0,83,0.00,,,0.00,Wunderground v.1.15,2013-10-09 01:15:00,
2013-10-08 21:25:00,62.4,58.2,30.14,East,80,0.0,0.0,86,0.00,,,0.00,Wunderground v.1.15,2013-10-09 01:25:00,
2013-10-08 21:30:00,62.2,58.0,30.15,East,80,0.0,0.0,86,0.00,,,0.00,Wunderground v.1.15,2013-10-09 01:30:00,
2013-10-08 21:39:00,62.0,57.1,30.15,East,80,0.0,0.0,84,0.00,,,0.00,Wunderground v.1.15,2013-10-09 01:39:00,
2013-10-08 21:45:00,62.0,57.1,30.15,East,80,0.0,0.0,84,0.00,,,0.00,Wunderground v.1.15,2013-10-09 01:45:00,
2013-10-08 21:50:00,62.0,56.8,30.15,East,80,0.0,0.0,83,0.00,,,0.00,Wunderground v.1.15,2013-10-09 01:50:00,
2013-10-08 22:00:00,62.0,57.1,30.15,East,80,0.0,0.0,84,0.00,,,0.00,Wunderground v.1.15,2013-10-09 02:00:00,
2013-10-08 22:10:00,62.1,57.9,30.15,East,80,0.0,0.0,86,0.00,,,0.00,Wunderground v.1.15,2013-10-09 02:10:00,
2013-10-08 22:19:00,62.1,58.2,30.15,East,80,0.0,0.0,87,0.00,,,0.00,Wunderground v.1.15,2013-10-09 02:19:00,
2013-10-08 22:25:00,62.0,58.1,30.15,East,80,0.0,0.0,87,0.00,,,0.00,Wunderground v.1.15,2013-10-09 02:25:00,
2013-10-08 22:35:00,62.0,57.4,30.15,East,80,0.0,0.0,85,0.00,,,0.00,Wunderground v.1.15,2013-10-09 02:35:00,
2013-10-08 22:45:00,62.0,57.8,30.15,East,80,0.0,0.0,86,0.00,,,0.00,Wunderground v.1.15,2013-10-09 02:45:00,
2013-10-08 22:50:00,62.0,58.1,30.15,East,80,0.0,0.0,87,0.00,,,0.00,Wunderground v.1.15,2013-10-09 02:50:00,
2013-10-08 22:59:00,61.8,58.8,30.16,East,80,0.0,0.0,90,0.00,,,0.00,Wunderground v.1.15,2013-10-09 02:59:00,
2013-10-08 23:05:00,61.8,58.8,30.16,East,80,0.0,0.0,90,0.00,,,0.00,Wunderground v.1.15,2013-10-09 03:05:00,
2013-10-08 23:10:00,61.7,58.4,30.16,East,80,0.0,0.0,89,0.00,,,0.00,Wunderground v.1.15,2013-10-09 03:10:00,
2013-10-08 23:20:00,61.6,57.7,30.16,East,80,0.0,0.0,87,0.00,,,0.00,Wunderground v.1.15,2013-10-09 03:20:00,
2013-10-08 23:29:00,61.5,57.6,30.15,East,80,0.0,0.0,87,0.00,,,0.00,Wunderground v.1.15,2013-10-09 03:29:00,
2013-10-08 23:35:00,61.6,57.4,30.15,East,80,0.0,0.0,86,0.00,,,0.00,Wunderground v.1.15,2013-10-09 03:35:00,
2013-10-08 23:40:00,61.7,57.1,30.15,East,80,0.0,0.0,85,0.00,,,0.00,Wunderground v.1.15,2013-10-09 03:40:00,
2013-10-08 23:50:00,61.8,57.2,30.15,East,80,0.0,0.0,85,0.00,,,0.00,Wunderground v.1.15,2013-10-09 03:50:00,